createdAt,value
2019-02-11T00:02:00.528Z,94687.78
2019-02-11T00:04:33.230Z,94689.57
2019-02-11T00:07:05.909Z,94697.77
2019-02-11T00:09:38.913Z,94692.77
2019-02-11T00:12:11.557Z,94697.91
2019-02-11T00:14:44.999Z,94694.39
2019-02-11T00:17:17.559Z,94702.59
2019-02-11T00:19:50.209Z,94704.36
2019-02-11T00:22:22.840Z,94711.45
2019-02-11T00:24:55.568Z,94710.96
2019-02-11T00:27:28.129Z,94714.81
2019-02-11T00:30:00.942Z,94725.92
2019-02-11T00:32:33.633Z,94723.34
2019-02-11T00:35:06.262Z,94733.16
2019-02-11T00:37:38.948Z,94735.06
2019-02-11T00:40:11.774Z,94730.27
2019-02-11T00:42:44.730Z,94735.55
2019-02-11T00:45:20.391Z,94724.00
2019-02-11T00:47:52.971Z,94739.27
2019-02-11T00:50:25.572Z,94734.92
2019-02-11T00:52:58.161Z,94728.34
2019-02-11T00:55:30.869Z,94737.97
2019-02-11T00:58:03.474Z,94738.31
2019-02-11T01:00:36.049Z,94742.48
2019-02-11T01:03:08.725Z,94743.80
2019-02-11T01:05:41.382Z,94766.97
2019-02-11T01:08:14.009Z,94771.78
2019-02-11T01:10:46.788Z,94780.63
2019-02-11T01:13:27.198Z,94783.22
2019-02-11T01:15:53.968Z,94775.17
2019-02-11T01:18:26.658Z,94775.81
2019-02-11T01:20:59.211Z,94773.37
2019-02-11T01:23:31.998Z,94775.65
2019-02-11T01:26:04.516Z,94777.89
2019-02-11T01:28:37.250Z,94779.34
2019-02-11T01:31:09.853Z,94787.37
2019-02-11T01:33:47.590Z,94791.89
2019-02-11T01:36:20.144Z,94789.48
2019-02-11T01:38:52.766Z,94787.23
2019-02-11T01:41:25.378Z,94789.64
2019-02-11T01:43:58.038Z,94795.73
2019-02-11T01:46:30.669Z,94799.47
2019-02-11T01:49:03.341Z,94797.37
2019-02-11T01:51:35.991Z,94800.11
2019-02-11T01:54:08.516Z,94807.02
2019-02-11T01:56:41.375Z,94812.32
2019-02-11T01:59:14.127Z,94808.79
2019-02-11T02:01:46.732Z,94810.87
2019-02-11T02:04:19.315Z,94811.50
2019-02-11T02:06:52.022Z,94818.91
2019-02-11T02:09:24.611Z,94824.86
2019-02-11T02:11:57.192Z,94829.98
2019-02-11T02:14:29.797Z,94832.41
2019-02-11T02:17:02.499Z,94833.70
2019-02-11T02:19:35.229Z,94836.57
2019-02-11T02:22:07.907Z,94842.73
2019-02-11T02:24:40.494Z,94841.52
2019-02-11T02:27:13.188Z,94846.75
2019-02-11T02:29:45.841Z,94854.24
2019-02-11T02:32:18.692Z,94862.27
2019-02-11T02:34:51.451Z,94856.16
2019-02-11T02:37:24.085Z,94855.68
2019-02-11T02:39:57.002Z,94862.14
2019-02-11T02:42:29.710Z,94871.14
2019-02-11T02:45:02.555Z,94867.79
2019-02-11T02:47:35.179Z,94874.50
2019-02-11T02:50:08.682Z,94874.41
2019-02-11T02:52:41.286Z,94872.47
2019-02-11T02:55:13.975Z,94880.77
2019-02-11T02:57:46.743Z,94881.19
2019-02-11T03:00:19.248Z,94886.34
2019-02-11T03:02:51.971Z,94884.92
2019-02-11T03:05:25.709Z,94900.63
2019-02-11T03:07:59.686Z,94901.63
2019-02-11T03:10:32.381Z,94924.45
2019-02-11T03:13:05.074Z,94923.84
2019-02-11T03:15:37.664Z,94938.84
2019-02-11T03:18:10.350Z,94944.27
2019-02-11T03:20:42.913Z,94943.52
2019-02-11T03:23:15.633Z,94946.72
2019-02-11T03:25:48.266Z,94950.17
2019-02-11T03:28:20.872Z,94959.69
2019-02-11T03:30:52.686Z,94961.59
2019-02-11T03:33:25.381Z,94960.47
2019-02-11T03:35:58.532Z,94953.72
2019-02-11T03:38:31.089Z,94962.57
2019-02-11T03:41:03.784Z,94961.75
2019-02-11T03:43:36.352Z,94965.96
2019-02-11T03:46:09.199Z,94959.81
2019-02-11T03:48:41.747Z,94968.34
2019-02-11T03:51:14.519Z,94961.41
2019-02-11T03:53:47.142Z,94968.03
2019-02-11T03:56:20.036Z,94961.41
2019-02-11T03:58:52.797Z,94958.84
2019-02-11T04:01:25.475Z,94969.78
2019-02-11T04:03:59.115Z,94969.56
2019-02-11T04:06:31.780Z,94968.30
2019-02-11T04:09:06.082Z,94983.52
2019-02-11T04:11:38.734Z,94980.20
2019-02-11T04:14:11.504Z,94983.05
2019-02-11T04:16:44.150Z,94982.02
2019-02-11T04:19:17.101Z,94995.41
2019-02-11T04:22:10.356Z,94992.98
2019-02-11T04:24:47.523Z,94999.23
2019-02-11T04:27:19.328Z,95007.81
2019-02-11T04:29:51.927Z,95023.23
2019-02-11T04:32:24.765Z,95031.08
2019-02-11T04:34:57.345Z,95028.66
2019-02-11T04:37:29.914Z,95039.18
2019-02-11T04:40:02.499Z,95035.62
2019-02-11T04:42:35.120Z,95036.65
2019-02-11T04:45:08.902Z,95057.02
2019-02-11T04:47:41.495Z,95059.88
2019-02-11T04:50:14.152Z,95063.62
2019-02-11T04:52:46.708Z,95072.72
2019-02-11T04:55:19.514Z,95084.07
2019-02-11T04:57:52.114Z,95088.45
2019-02-11T05:00:24.805Z,95090.63
2019-02-11T05:03:00.527Z,95098.57
2019-02-11T05:05:33.118Z,95099.63
2019-02-11T05:08:05.811Z,95091.78
2019-02-11T05:10:38.536Z,95089.73
2019-02-11T05:13:11.100Z,95091.87
2019-02-11T05:15:43.748Z,95093.00
2019-02-11T05:18:16.945Z,95094.78
2019-02-11T05:20:49.751Z,95087.11
2019-02-11T05:23:22.297Z,95078.23
2019-02-11T05:25:54.914Z,95078.94
2019-02-11T05:28:27.450Z,95090.34
2019-02-11T05:31:00.177Z,95087.25
2019-02-11T05:33:32.739Z,95091.08
2019-02-11T05:36:05.403Z,95089.83
2019-02-11T05:38:38.005Z,95096.30
2019-02-11T05:41:15.447Z,95101.13
2019-02-11T05:43:49.108Z,95108.03
2019-02-11T05:46:24.723Z,95106.64
2019-02-11T05:48:57.313Z,95108.38
2019-02-11T05:51:29.904Z,95115.86
2019-02-11T05:54:02.537Z,95125.75
2019-02-11T05:56:35.163Z,95129.84
2019-02-11T05:59:07.852Z,95129.17
2019-02-11T06:01:40.436Z,95130.92
2019-02-11T06:04:13.075Z,95128.99
2019-02-11T06:06:45.635Z,95132.55
2019-02-11T06:09:18.519Z,95139.65
2019-02-11T06:11:51.180Z,95152.23
2019-02-11T06:14:23.877Z,95164.47
2019-02-11T06:16:56.521Z,95163.47
2019-02-11T06:19:30.156Z,95168.93
2019-02-11T06:22:03.660Z,95179.27
2019-02-11T06:24:39.086Z,95185.40
2019-02-11T06:27:11.676Z,95201.46
2019-02-11T06:29:44.474Z,95204.78
2019-02-11T06:32:17.068Z,95210.55
2019-02-11T06:34:49.814Z,95207.69
2019-02-11T06:37:22.521Z,95206.69
2019-02-11T06:39:55.136Z,95209.35
2019-02-11T06:42:27.772Z,95214.17
2019-02-11T06:45:00.394Z,95223.87
2019-02-11T06:47:32.976Z,95231.26
2019-02-11T06:50:06.472Z,95233.86
2019-02-11T06:52:39.196Z,95234.68
2019-02-11T06:55:12.310Z,95240.43
2019-02-11T06:57:44.864Z,95254.72
2019-02-11T07:00:17.506Z,95272.48
2019-02-11T07:02:50.131Z,95273.77
2019-02-11T07:05:22.807Z,95276.40
2019-02-11T07:07:55.476Z,95284.78
2019-02-11T07:10:28.033Z,95287.30
2019-02-11T07:13:00.734Z,95294.54
2019-02-11T07:15:33.396Z,95299.19
2019-02-11T07:18:06.031Z,95304.39
2019-02-11T07:20:38.737Z,95309.39
2019-02-11T07:23:11.352Z,95311.05
2019-02-11T07:25:44.028Z,95319.38
2019-02-11T07:28:16.651Z,95322.02
2019-02-11T07:30:49.232Z,95325.41
2019-02-11T07:33:21.911Z,95340.69
2019-02-11T07:35:54.586Z,95354.08
2019-02-11T07:38:27.194Z,95353.41
2019-02-11T07:41:00.214Z,95351.51
2019-02-11T07:43:41.479Z,95355.22
2019-02-11T07:46:33.819Z,95363.11
2019-02-11T07:49:06.512Z,95370.57
2019-02-11T07:51:42.234Z,95373.75
2019-02-11T07:54:13.405Z,95390.04
2019-02-11T07:56:46.010Z,95386.57
2019-02-11T07:59:23.387Z,95394.58
2019-02-11T08:01:53.422Z,95395.54
2019-02-11T08:04:26.055Z,95399.29
2019-02-11T08:06:58.746Z,95411.25
2019-02-11T08:09:31.606Z,95418.11
2019-02-11T08:12:04.359Z,95417.52
2019-02-11T08:14:37.012Z,95420.93
2019-02-11T08:17:09.735Z,95416.84
2019-02-11T08:19:42.896Z,95422.30
2019-02-11T08:22:15.819Z,95426.83
2019-02-11T08:24:48.857Z,95434.58
2019-02-11T08:27:21.562Z,95431.98
2019-02-11T08:29:54.302Z,95438.88
2019-02-11T08:32:26.975Z,95440.38
2019-02-11T08:34:59.870Z,95446.31
2019-02-11T08:37:32.447Z,95462.20
2019-02-11T08:40:07.239Z,95460.92
2019-02-11T08:42:43.077Z,95459.02
2019-02-11T08:45:15.912Z,95458.87
2019-02-11T08:47:48.821Z,95467.05
2019-02-11T08:50:21.645Z,95465.31
2019-02-11T08:52:54.278Z,95470.00
2019-02-11T08:55:26.976Z,95477.43
2019-02-11T08:57:59.597Z,95471.23
2019-02-11T09:00:32.395Z,95473.48
2019-02-11T09:03:05.208Z,95474.63
2019-02-11T09:05:37.877Z,95473.86
2019-02-11T09:08:10.993Z,95472.74
2019-02-11T09:10:43.741Z,95475.83
2019-02-11T09:13:16.297Z,95481.66
2019-02-11T09:15:55.273Z,95484.76
2019-02-11T09:18:23.397Z,95492.05
2019-02-11T09:20:56.083Z,95497.61
2019-02-11T09:23:32.802Z,95498.19
2019-02-11T09:26:05.903Z,95502.00
2019-02-11T09:28:38.689Z,95502.30
2019-02-11T09:31:11.683Z,95504.49
2019-02-11T09:33:44.426Z,95506.95
2019-02-11T09:36:17.084Z,95510.42
2019-02-11T09:38:49.618Z,95506.09
2019-02-11T09:41:22.270Z,95512.23
2019-02-11T09:43:54.866Z,95517.13
2019-02-11T09:46:27.509Z,95520.06
2019-02-11T09:49:00.057Z,95527.73
2019-02-11T09:51:34.317Z,95535.61
2019-02-11T09:54:07.228Z,95534.05
2019-02-11T09:56:40.785Z,95541.80
2019-02-11T09:59:14.788Z,95545.38
2019-02-11T10:01:47.499Z,95555.34
2019-02-11T10:04:20.188Z,95559.75
2019-02-11T10:06:52.775Z,95567.41
2019-02-11T10:09:25.347Z,95579.19
2019-02-11T10:11:58.008Z,95582.64
2019-02-11T10:14:30.712Z,95583.84
2019-02-11T10:17:03.462Z,95590.14
2019-02-11T10:19:36.292Z,95590.44
2019-02-11T10:22:08.994Z,95604.64
2019-02-11T10:24:41.702Z,95610.36
2019-02-11T10:27:15.917Z,95613.67
2019-02-11T10:29:48.746Z,95612.81
2019-02-11T10:32:21.435Z,95617.80
2019-02-11T10:34:54.047Z,95619.52
2019-02-11T10:37:27.231Z,95631.02
2019-02-11T10:39:59.930Z,95642.59
2019-02-11T10:42:32.484Z,95634.33
2019-02-11T10:45:05.613Z,95635.25
2019-02-11T10:47:38.655Z,95632.02
2019-02-11T10:50:12.870Z,95631.08
2019-02-11T10:52:45.842Z,95638.05
2019-02-11T10:55:19.358Z,95636.06
2019-02-11T10:57:52.333Z,95637.84
2019-02-11T11:00:25.709Z,95633.91
2019-02-11T11:02:59.280Z,95637.17
2019-02-11T11:05:31.837Z,95636.64
2019-02-11T11:08:04.759Z,95632.01
2019-02-11T11:10:37.895Z,95642.20
2019-02-11T11:13:10.515Z,95637.87
2019-02-11T11:15:43.104Z,95639.30
2019-02-11T11:18:15.699Z,95645.94
2019-02-11T11:20:48.243Z,95651.12
2019-02-11T11:23:21.137Z,95651.62
2019-02-11T11:25:53.928Z,95654.58
2019-02-11T11:28:26.678Z,95663.77
2019-02-11T11:30:59.369Z,95645.84
2019-02-11T11:33:32.051Z,95648.74
2019-02-11T11:36:04.612Z,95644.34
2019-02-11T11:38:37.276Z,95655.45
2019-02-11T11:41:10.391Z,95656.19
2019-02-11T11:43:43.062Z,95651.86
2019-02-11T11:46:15.742Z,95668.09
2019-02-11T11:48:48.365Z,95662.96
2019-02-11T11:51:21.097Z,95676.91
2019-02-11T11:53:53.703Z,95678.28
2019-02-11T11:56:26.385Z,95678.84
2019-02-11T11:58:59.062Z,95684.67
2019-02-11T12:01:31.662Z,95681.92
2019-02-11T12:04:06.414Z,95684.16
2019-02-11T12:06:38.281Z,95687.09
2019-02-11T12:09:11.350Z,95681.54
2019-02-11T12:11:44.055Z,95688.04
2019-02-11T12:14:17.909Z,95683.96
2019-02-11T12:16:56.810Z,95687.28
2019-02-11T12:19:24.726Z,95692.48
2019-02-11T12:21:57.542Z,95695.27
2019-02-11T12:24:30.759Z,95696.41
2019-02-11T12:27:03.692Z,95696.14
2019-02-11T12:29:36.373Z,95703.11
2019-02-11T12:32:09.030Z,95714.40
2019-02-11T12:34:41.688Z,95715.70
2019-02-11T12:37:14.427Z,95711.57
2019-02-11T12:39:47.150Z,95708.22
2019-02-11T12:42:19.741Z,95706.52
2019-02-11T12:44:52.461Z,95706.90
2019-02-11T12:47:25.098Z,95701.28
2019-02-11T12:49:57.919Z,95707.59
2019-02-11T12:52:30.604Z,95702.63
2019-02-11T12:55:07.579Z,95703.36
2019-02-11T12:57:37.631Z,95703.33
2019-02-11T13:00:19.100Z,95699.11
2019-02-11T13:02:51.982Z,95694.87
2019-02-11T13:05:43.488Z,95696.38
2019-02-11T13:07:59.425Z,95704.48
2019-02-11T13:10:32.089Z,95697.44
2019-02-11T13:13:06.723Z,95699.05
2019-02-11T13:15:59.266Z,95697.38
2019-02-11T13:18:14.064Z,95702.16
2019-02-11T13:20:47.110Z,95701.17
2019-02-11T13:23:19.289Z,95715.39
2019-02-11T13:25:55.853Z,95729.16
2019-02-11T13:28:28.141Z,95742.19
2019-02-11T13:31:00.752Z,95741.90
2019-02-11T13:33:33.378Z,95758.11
2019-02-11T13:36:06.157Z,95774.86
2019-02-11T13:38:45.858Z,95777.59
2019-02-11T13:41:21.671Z,95777.00
2019-02-11T13:43:56.915Z,95784.02
2019-02-11T13:46:30.218Z,95780.31
2019-02-11T13:49:03.042Z,95785.50
2019-02-11T13:51:36.114Z,95785.87
2019-02-11T13:54:09.337Z,95786.22
2019-02-11T13:56:44.186Z,95788.75
2019-02-11T13:59:17.833Z,95787.94
2019-02-11T14:01:50.848Z,95793.52
2019-02-11T14:04:27.681Z,95801.57
2019-02-11T14:06:58.431Z,95804.23
2019-02-11T14:09:31.073Z,95805.23
2019-02-11T14:12:03.758Z,95814.63
2019-02-11T14:14:36.330Z,95808.98
2019-02-11T14:17:08.930Z,95811.92
2019-02-11T14:19:41.654Z,95819.96
2019-02-11T14:22:14.578Z,95820.59
2019-02-11T14:24:55.062Z,95824.75
2019-02-11T14:27:29.452Z,95823.30
2019-02-11T14:30:04.410Z,95827.72
2019-02-11T14:32:37.062Z,95822.66
2019-02-11T14:35:09.892Z,95831.73
2019-02-11T14:37:42.530Z,95836.08
2019-02-11T14:40:15.678Z,95847.59
2019-02-11T14:42:48.321Z,95845.62
2019-02-11T14:45:21.046Z,95858.12
2019-02-11T14:47:53.724Z,95856.52
2019-02-11T14:50:26.387Z,95849.95
2019-02-11T14:52:59.129Z,95852.20
2019-02-11T14:55:31.815Z,95844.94
2019-02-11T14:58:04.460Z,95851.63
2019-02-11T15:00:37.031Z,95854.86
2019-02-11T15:03:09.704Z,95854.80
2019-02-11T15:05:42.277Z,95855.97
2019-02-11T15:08:15.096Z,95863.67
2019-02-11T15:10:47.845Z,95874.84
2019-02-11T15:13:20.501Z,95870.66
2019-02-11T15:15:53.140Z,95865.25
2019-02-11T15:18:33.932Z,95874.05
2019-02-11T15:21:00.136Z,95871.34
2019-02-11T15:23:32.823Z,95867.19
2019-02-11T15:26:05.362Z,95880.06
2019-02-11T15:28:38.140Z,95891.76
2019-02-11T15:31:10.681Z,95907.92
2019-02-11T15:33:44.107Z,95911.38
2019-02-11T15:36:16.748Z,95905.05
2019-02-11T15:38:49.393Z,95907.33
2019-02-11T15:41:22.051Z,95896.92
2019-02-11T15:43:54.611Z,95904.41
2019-02-11T15:46:27.386Z,95893.32
2019-02-11T15:48:59.968Z,95898.55
2019-02-11T15:51:32.767Z,95912.05
2019-02-11T15:54:05.323Z,95908.91
2019-02-11T15:56:37.915Z,95927.47
2019-02-11T15:59:10.546Z,95945.91
2019-02-11T16:01:43.131Z,95930.25
2019-02-11T16:04:15.797Z,95943.41
2019-02-11T16:06:48.407Z,95953.05
2019-02-11T16:09:23.132Z,95955.63
2019-02-11T16:11:56.052Z,95968.41
2019-02-11T16:14:28.693Z,95971.95
2019-02-11T16:17:01.352Z,95976.52
2019-02-11T16:19:34.091Z,95982.79
2019-02-11T16:22:06.887Z,95986.55
2019-02-11T16:24:39.558Z,95992.25
2019-02-11T16:27:12.229Z,95994.50
2019-02-11T16:29:44.933Z,96010.62
2019-02-11T16:32:17.614Z,96002.91
2019-02-11T16:34:50.258Z,96012.01
2019-02-11T16:37:22.909Z,96015.25
2019-02-11T16:39:55.452Z,96016.54
2019-02-11T16:42:28.136Z,96013.51
2019-02-11T16:45:00.787Z,96020.30
2019-02-11T16:47:33.401Z,96028.65
2019-02-11T16:50:07.220Z,96040.75
2019-02-11T16:52:39.943Z,96035.34
2019-02-11T16:55:13.013Z,96036.05
2019-02-11T16:57:45.684Z,96040.95
2019-02-11T17:00:19.118Z,96054.64
2019-02-11T17:02:51.763Z,96047.89
2019-02-11T17:05:24.392Z,96047.51
2019-02-11T17:07:57.108Z,96063.66
2019-02-11T17:10:29.705Z,96069.17
2019-02-11T17:13:02.353Z,96061.78
2019-02-11T17:15:35.060Z,96069.95
2019-02-11T17:18:07.736Z,96074.06
2019-02-11T17:20:40.374Z,96079.32
2019-02-11T17:23:14.599Z,96089.13
2019-02-11T17:25:47.292Z,96088.78
2019-02-11T17:28:20.060Z,96085.36
2019-02-11T17:30:53.381Z,96088.38
2019-02-11T17:33:25.992Z,96091.74
2019-02-11T17:35:58.640Z,96102.27
2019-02-11T17:38:32.223Z,96104.27
2019-02-11T17:41:04.936Z,96106.52
2019-02-11T17:43:37.526Z,96110.94
2019-02-11T17:46:10.429Z,96114.56
2019-02-11T17:48:43.197Z,96112.44
2019-02-11T17:51:15.818Z,96111.98
2019-02-11T17:53:48.471Z,96127.03
2019-02-11T17:56:21.308Z,96135.25
2019-02-11T17:58:53.885Z,96137.70
2019-02-11T18:01:26.555Z,96127.66
2019-02-11T18:03:59.207Z,96131.28
2019-02-11T18:06:31.949Z,96128.52
2019-02-11T18:09:05.751Z,96140.01
2019-02-11T18:11:38.521Z,96150.88
2019-02-11T18:14:13.543Z,96156.35
2019-02-11T18:16:46.174Z,96155.64
2019-02-11T18:19:25.918Z,96153.11
2019-02-11T18:21:53.340Z,96157.88
2019-02-11T18:24:26.297Z,96156.50
2019-02-11T18:26:58.978Z,96163.27
2019-02-11T18:29:31.617Z,96159.31
2019-02-11T18:32:04.219Z,96158.83
2019-02-11T18:34:36.857Z,96157.21
2019-02-11T18:37:09.550Z,96177.28
2019-02-11T18:39:42.175Z,96175.20
2019-02-11T18:42:14.880Z,96168.66
2019-02-11T18:44:47.542Z,96170.42
2019-02-11T18:47:20.168Z,96160.70
2019-02-11T18:49:52.801Z,96171.34
2019-02-11T18:52:25.479Z,96180.58
2019-02-11T18:54:58.123Z,96174.48
2019-02-11T18:57:31.027Z,96177.99
2019-02-11T19:00:04.071Z,96187.55
2019-02-11T19:02:36.807Z,96200.19
2019-02-11T19:05:09.410Z,96209.27
2019-02-11T19:07:42.278Z,96210.33
2019-02-11T19:10:15.104Z,96213.72
2019-02-11T19:12:47.744Z,96223.41
2019-02-11T19:15:20.449Z,96233.20
2019-02-11T19:17:53.176Z,96236.95
2019-02-11T19:20:25.914Z,96232.39
2019-02-11T19:22:58.503Z,96226.67
2019-02-11T19:25:31.284Z,96235.53
2019-02-11T19:28:03.939Z,96241.95
2019-02-11T19:30:36.550Z,96254.31
2019-02-11T19:33:09.344Z,96251.86
2019-02-11T19:35:41.986Z,96256.78
2019-02-11T19:38:14.647Z,96256.80
2019-02-11T19:40:47.260Z,96267.78
2019-02-11T19:43:20.030Z,96270.00
2019-02-11T19:45:52.738Z,96274.25
2019-02-11T19:48:25.785Z,96278.56
2019-02-11T19:50:58.438Z,96277.97
2019-02-11T19:53:31.173Z,96289.88
2019-02-11T19:56:03.739Z,96285.69
2019-02-11T19:58:36.478Z,96288.85
2019-02-11T20:01:09.294Z,96304.87
2019-02-11T20:03:42.927Z,96309.89
2019-02-11T20:06:16.302Z,96307.20
2019-02-11T20:08:48.888Z,96308.50
2019-02-11T20:11:21.508Z,96315.50
2019-02-11T20:13:54.055Z,96322.06
2019-02-11T20:16:26.731Z,96323.92
2019-02-11T20:18:59.397Z,96328.14
2019-02-11T20:21:32.059Z,96339.45
2019-02-11T20:24:04.782Z,96329.74
2019-02-11T20:26:37.441Z,96330.45
2019-02-11T20:29:10.454Z,96342.16
2019-02-11T20:31:43.082Z,96343.58
2019-02-11T20:34:15.759Z,96341.11
2019-02-11T20:36:48.463Z,96349.28
2019-02-11T20:39:21.082Z,96353.73
2019-02-11T20:41:53.728Z,96355.61
2019-02-11T20:44:26.435Z,96359.14
2019-02-11T20:47:02.096Z,96371.07
2019-02-11T20:49:34.798Z,96366.50
2019-02-11T20:52:07.437Z,96367.55
2019-02-11T20:54:40.137Z,96370.81
2019-02-11T20:57:12.708Z,96380.42
2019-02-11T20:59:45.525Z,96391.06
2019-02-11T21:02:18.257Z,96391.05
2019-02-11T21:04:50.943Z,96399.70
2019-02-11T21:07:23.583Z,96399.16
2019-02-11T21:09:56.291Z,96397.27
2019-02-11T21:12:29.229Z,96407.20
2019-02-11T21:15:02.097Z,96401.59
2019-02-11T21:17:34.793Z,96415.05
2019-02-11T21:20:17.349Z,96421.12
2019-02-11T21:22:44.952Z,96413.03
2019-02-11T21:25:17.896Z,96420.64
2019-02-11T21:27:50.783Z,96414.11
2019-02-11T21:30:23.804Z,96412.83
2019-02-11T21:32:57.598Z,96414.45
2019-02-11T21:35:30.618Z,96411.17
2019-02-11T21:38:03.644Z,96394.67
2019-02-11T21:40:36.519Z,96399.20
2019-02-11T21:43:09.506Z,96389.27
2019-02-11T21:45:42.509Z,96386.36
2019-02-11T21:48:16.924Z,96389.50
2019-02-11T21:50:49.586Z,96388.79
2019-02-11T21:53:22.220Z,96393.59
2019-02-11T21:55:54.853Z,96392.53
2019-02-11T21:58:27.379Z,96394.27
2019-02-11T22:01:02.324Z,96399.33
2019-02-11T22:03:34.339Z,96389.25
2019-02-11T22:06:06.881Z,96393.70
2019-02-11T22:08:39.553Z,96388.08
2019-02-11T22:11:12.799Z,96390.77
2019-02-11T22:13:45.421Z,96393.47
2019-02-11T22:16:18.068Z,96388.19
2019-02-11T22:18:50.600Z,96378.72
2019-02-11T22:21:23.291Z,96377.76
2019-02-11T22:23:56.094Z,96377.25
2019-02-11T22:26:29.077Z,96364.38
2019-02-11T22:29:01.703Z,96351.25
2019-02-11T22:31:34.303Z,96347.11
2019-02-11T22:34:06.960Z,96345.08
2019-02-11T22:36:39.588Z,96346.47
2019-02-11T22:39:12.689Z,96343.57
2019-02-11T22:41:45.428Z,96339.69
2019-02-11T22:44:18.030Z,96339.34
2019-02-11T22:46:50.776Z,96356.06
2019-02-11T22:49:23.447Z,96360.93
2019-02-11T22:51:56.096Z,96359.27
2019-02-11T22:54:28.762Z,96373.00
2019-02-11T22:57:01.404Z,96391.97
2019-02-11T22:59:34.414Z,96397.67
2019-02-11T23:02:07.819Z,96419.08
2019-02-11T23:04:42.126Z,96424.99
2019-02-11T23:07:14.777Z,96433.62
2019-02-11T23:09:47.548Z,96443.64
2019-02-11T23:12:22.560Z,96460.60
2019-02-11T23:14:55.248Z,96466.52
2019-02-11T23:17:27.907Z,96478.57
2019-02-11T23:20:00.535Z,96479.98
2019-02-11T23:22:33.286Z,96481.22
2019-02-11T23:25:06.021Z,96489.64
2019-02-11T23:27:39.385Z,96497.23
2019-02-11T23:30:13.972Z,96499.58
2019-02-11T23:32:46.636Z,96507.02
2019-02-11T23:35:18.462Z,96508.69
2019-02-11T23:37:51.084Z,96503.09
2019-02-11T23:40:23.733Z,96506.62
2019-02-11T23:42:55.906Z,96518.39
2019-02-11T23:45:28.547Z,96516.98
2019-02-11T23:48:03.783Z,96508.51
2019-02-11T23:50:36.515Z,96510.06
2019-02-11T23:53:09.245Z,96514.70
2019-02-11T23:55:41.873Z,96514.62
2019-02-11T23:58:14.625Z,96517.87
